This is the latest recevied weather packets stored in our database for station/object HS5SQI-2. If no packets are shown the sender has not sent any weather packets the latest 10 day(s).
| Time | Temp. | Humidity | Pressure | Rain* | Wind** | Luminosity | Snow |
|---|---|---|---|---|---|---|---|
| 1777754928 | 32.22° C | 73% | 1005 hPa | - | - | 0 W/m² | - |
| 1777754307 | 32.22° C | 73% | 1006 hPa | - | - | 0 W/m² | - |
| 1777753684 | 32.22° C | 74% | 1005 hPa | - | - | 0 W/m² | - |
| 1777753062 | 32.22° C | 73% | 1005 hPa | - | - | 0 W/m² | - |
| 1777752440 | 32.78° C | 72% | 1005 hPa | - | - | 0 W/m² | - |
| 1777751818 | 32.78° C | 71% | 1005 hPa | - | - | 0 W/m² | - |
| 1777751196 | 32.22° C | 71% | 1005 hPa | - | - | 0 W/m² | - |
| 1777750575 | 32.22° C | 72% | 1005 hPa | - | - | 0 W/m² | - |
| 1777749952 | 31.67° C | 73% | 1005 hPa | - | - | 0 W/m² | - |
| 1777749330 | 32.78° C | 68% | 1005 hPa | - | - | 0 W/m² | - |
| 1777748708 | 33.33° C | 68% | 1005 hPa | - | - | 0 W/m² | - |
| 1777748086 | 32.22° C | 70% | 1005 hPa | - | - | 0 W/m² | - |
| 1777747464 | 31.67° C | 72% | 1005 hPa | - | - | 0 W/m² | - |
| 1777746842 | 32.22° C | 71% | 1006 hPa | - | - | 0 W/m² | - |
| 1777746220 | 32.22° C | 69% | 1006 hPa | - | - | 0 W/m² | - |
| 1777745598 | 32.78° C | 68% | 1006 hPa | - | - | 0 W/m² | - |
| 1777744976 | 31.67° C | 72% | 1006 hPa | - | - | 0 W/m² | - |
| 1777744354 | 32.22° C | 70% | 1006 hPa | - | - | 0 W/m² | - |
| 1777743732 | 32.78° C | 68% | 1006 hPa | - | - | 0 W/m² | - |
| 1777743110 | 33.89° C | 64% | 1006 hPa | - | - | 0 W/m² | - |
| 1777742488 | 33.89° C | 64% | 1006 hPa | - | - | 0 W/m² | - |
| 1777741866 | 33.89° C | 66% | 1006 hPa | - | - | 0 W/m² | - |
| 1777741244 | 33.89° C | 65% | 1007 hPa | - | - | 0 W/m² | - |
| 1777740622 | 34.44° C | 64% | 1007 hPa | - | - | 0 W/m² | - |
| 1777740000 | 33.89° C | 65% | 1007 hPa | - | - | 0 W/m² | - |
* Rain since midnight (hover to see other rain measurements)
** Current wind speed in m/s (hover to see current wind gust speed)